Time;durP1;ratioP1;P1;durP2;ratioP2;P2;SDS_P1;SDS_P2;PMS_P1;PMS_P2;Temp;Humidity;BMP_temperature;BMP_pressure;BME280_temperature;BME280_humidity;BME280_pressure;Samples;Min_cycle;Max_cycle;Signal;HPM_P1;HPM_P2
2024/03/23 00:01:46;;;;;;;17.40;10.60;;;;;;;6.69;46.81;95026.94;5085149;28;20498;-77
2024/03/23 00:04:15;;;;;;;21.92;9.93;;;;;;;6.67;46.68;95023.84;5087939;28;20040;-77
2024/03/23 00:06:42;;;;;;;18.02;10.13;;;;;;;6.65;46.87;95031.66;5085709;28;20587;-77
2024/03/23 00:09:08;;;;;;;18.52;9.52;;;;;;;6.63;47.06;95032.06;5085484;28;20024;-78
2024/03/23 00:11:35;;;;;;;16.75;10.02;;;;;;;6.60;47.28;95018.47;5085046;28;20028;-77
2024/03/23 00:14:02;;;;;;;17.85;9.23;;;;;;;6.60;47.29;95023.94;5085026;28;20032;-78
2024/03/23 00:16:28;;;;;;;20.45;10.48;;;;;;;6.58;47.24;95018.09;5085205;28;20044;-77
2024/03/23 00:18:55;;;;;;;18.88;8.93;;;;;;;6.59;47.10;95017.69;5084991;28;20016;-77
2024/03/23 00:21:22;;;;;;;15.57;8.57;;;;;;;6.52;47.34;95020.50;5083851;28;20028;-77
2024/03/23 00:23:48;;;;;;;14.98;8.35;;;;;;;6.53;47.22;95016.59;5084928;28;20024;-78
2024/03/23 00:26:15;;;;;;;19.63;9.30;;;;;;;6.47;47.38;95020.19;5085171;28;20038;-76
2024/03/23 00:28:41;;;;;;;17.75;9.85;;;;;;;6.44;47.22;95010.84;5085194;28;20031;-76
2024/03/23 00:31:07;;;;;;;13.20;9.13;;;;;;;6.28;47.36;94994.25;5085011;28;20036;-77
2024/03/23 00:33:34;;;;;;;15.65;9.43;;;;;;;6.39;47.41;95014.03;5085138;28;20046;-77
2024/03/23 00:36:01;;;;;;;16.98;8.70;;;;;;;6.32;47.71;95017.63;5083006;28;20039;-77
2024/03/23 00:38:27;;;;;;;16.48;9.13;;;;;;;6.25;47.65;95006.78;5085249;28;20036;-77
2024/03/23 00:40:54;;;;;;;14.02;8.75;;;;;;;6.30;47.71;95019.19;5084625;28;20054;-77
2024/03/23 00:43:20;;;;;;;16.48;9.80;;;;;;;6.24;47.93;95024.31;5084913;28;20032;-79
2024/03/23 00:45:48;;;;;;;14.80;8.77;;;;;;;6.22;47.77;95017.72;5084594;28;20038;-76
2024/03/23 00:48:15;;;;;;;15.55;8.65;;;;;;;6.01;48.00;94999.63;5084902;28;20036;-77
2024/03/23 00:50:41;;;;;;;13.40;9.20;;;;;;;6.20;47.90;95011.91;5084657;28;20046;-77
2024/03/23 00:53:07;;;;;;;13.23;8.50;;;;;;;6.08;47.92;95000.34;5084307;28;20391;-78
2024/03/23 00:55:33;;;;;;;14.43;8.75;;;;;;;6.15;47.97;95007.66;5084895;28;20028;-77
2024/03/23 00:57:58;;;;;;;12.90;8.27;;;;;;;6.13;47.76;95005.31;5082812;28;20028;-77
2024/03/23 01:00:23;;;;;;;14.15;8.20;;;;;;;6.13;47.79;95010.78;5084861;28;20133;-77
2024/03/23 01:02:49;;;;;;;14.65;8.30;;;;;;;6.16;47.79;95006.47;5084378;28;20032;-77
2024/03/23 01:05:14;;;;;;;13.73;8.23;;;;;;;6.10;47.96;94997.19;5085114;28;20036;-77
2024/03/23 01:07:40;;;;;;;15.07;8.88;;;;;;;6.07;48.12;94998.75;5083466;28;20054;-77
2024/03/23 01:10:05;;;;;;;13.43;9.13;;;;;;;6.04;48.29;95001.53;5065637;28;20043;-77
2024/03/23 01:12:31;;;;;;;16.92;9.10;;;;;;;6.00;48.32;95007.03;5084433;28;20136;-78
2024/03/23 01:14:56;;;;;;;15.38;9.07;;;;;;;5.99;48.31;95008.22;5083865;28;20064;-76
2024/03/23 01:17:21;;;;;;;17.38;9.07;;;;;;;5.98;48.54;94997.72;5082963;28;20070;-78
2024/03/23 01:19:47;;;;;;;14.13;8.52;;;;;;;5.96;48.37;95002.78;5083162;28;20422;-76
2024/03/23 01:22:12;;;;;;;17.23;8.45;;;;;;;5.96;48.59;95006.28;5084382;28;20051;-77
2024/03/23 01:24:38;;;;;;;17.58;9.80;;;;;;;6.01;48.53;95007.81;5084608;28;20028;-76
2024/03/23 01:27:03;;;;;;;13.65;8.68;;;;;;;5.83;48.78;95002.50;5084358;28;20415;-78
2024/03/23 01:29:29;;;;;;;16.65;9.15;;;;;;;5.75;49.16;95001.78;5065877;28;20036;-77
2024/03/23 01:31:54;;;;;;;10.60;6.75;;;;;;;5.71;49.55;95011.19;5082239;28;20055;-78
2024/03/23 01:34:20;;;;;;;12.68;7.90;;;;;;;5.71;49.55;95005.72;5083071;28;20155;-77
2024/03/23 01:36:46;;;;;;;13.52;7.28;;;;;;;5.75;49.36;95009.97;5084116;28;20025;-76
2024/03/23 01:39:12;;;;;;;10.65;6.97;;;;;;;5.69;49.46;95006.13;5082600;28;20031;-76
2024/03/23 01:41:42;;;;;;;15.25;7.47;;;;;;;5.63;49.39;94999.56;5082690;28;20058;-76
2024/03/23 01:44:07;;;;;;;13.15;7.20;;;;;;;5.66;49.53;95006.94;5084082;28;20028;-77
2024/03/23 01:46:33;;;;;;;14.20;7.50;;;;;;;5.69;49.51;95002.63;5083140;28;20107;-75
2024/03/23 01:48:59;;;;;;;13.13;7.13;;;;;;;5.65;49.49;95002.66;5083777;28;20028;-77
2024/03/23 01:51:25;;;;;;;12.65;7.78;;;;;;;5.69;49.36;95002.63;5084304;28;20058;-77
2024/03/23 01:53:51;;;;;;;13.90;7.38;;;;;;;5.65;49.49;95002.66;5082284;28;20024;-77
2024/03/23 01:56:16;;;;;;;13.55;8.57;;;;;;;5.69;49.51;94999.91;5084083;28;20425;-78
2024/03/23 01:58:42;;;;;;;11.27;7.07;;;;;;;5.69;49.67;94999.91;5082793;28;20107;-77
2024/03/23 02:01:07;;;;;;;11.73;6.90;;;;;;;5.61;49.71;94996.44;5083831;28;20416;-77
2024/03/23 02:03:33;;;;;;;13.07;7.95;;;;;;;5.65;49.67;95004.63;5083837;28;20432;-77
2024/03/23 02:05:58;;;;;;;15.98;8.15;;;;;;;5.61;49.55;95004.63;5084034;28;20032;-77
2024/03/23 02:08:24;;;;;;;13.40;7.60;;;;;;;5.52;49.81;94999.66;5065880;28;20486;-77
2024/03/23 02:10:50;;;;;;;18.80;7.75;;;;;;;5.46;50.14;95006.72;5065254;28;20067;-77
2024/03/23 02:13:16;;;;;;;14.02;8.05;;;;;;;5.57;49.78;95012.09;5086903;28;20559;-77
2024/03/23 02:15:42;;;;;;;11.00;6.85;;;;;;;5.53;49.79;95016.78;5082537;28;20056;-77
2024/03/23 02:18:08;;;;;;;10.10;6.50;;;;;;;5.49;49.71;95007.84;5082114;28;20492;-76
2024/03/23 02:20:34;;;;;;;10.57;6.07;;;;;;;5.49;49.69;95010.59;5083722;28;20458;-76
2024/03/23 02:23:00;;;;;;;11.77;6.53;;;;;;;5.49;49.57;95007.84;5085899;28;20062;-77
2024/03/23 02:25:25;;;;;;;11.27;6.20;;;;;;;5.41;49.92;95006.38;5086186;28;20055;-76
2024/03/23 02:27:50;;;;;;;10.57;6.28;;;;;;;5.42;49.92;95014.16;5086080;28;20492;-76
2024/03/23 02:30:16;;;;;;;9.10;6.20;;;;;;;5.39;49.93;95017.69;5069139;28;20063;-76
2024/03/23 02:32:41;;;;;;;9.68;6.22;;;;;;;5.39;49.92;95009.50;5086262;28;20024;-76
2024/03/23 02:35:07;;;;;;;12.90;7.05;;;;;;;5.31;49.66;94995.13;5087638;28;20035;-76
2024/03/23 02:37:32;;;;;;;9.75;6.72;;;;;;;5.39;49.87;95009.50;5087534;28;20035;-78
2024/03/23 02:39:58;;;;;;;10.82;7.13;;;;;;;5.43;49.64;95004.78;5087550;28;20036;-77
2024/03/23 02:42:23;;;;;;;10.65;6.55;;;;;;;5.38;49.77;95004.44;5085950;28;20031;-76
2024/03/23 02:44:49;;;;;;;11.27;6.80;;;;;;;5.40;49.78;95007.56;5086068;28;20024;-77
2024/03/23 02:47:14;;;;;;;9.20;6.18;;;;;;;5.37;49.52;95011.84;5069079;28;20051;-76
2024/03/23 02:49:40;;;;;;;11.25;7.40;;;;;;;5.37;49.53;95005.63;5068838;28;20035;-76
2024/03/23 02:52:05;;;;;;;9.77;6.50;;;;;;;5.34;49.88;95004.47;5086916;28;20125;-77
2024/03/23 02:54:31;;;;;;;9.80;6.53;;;;;;;5.31;49.80;94999.81;5087140;28;20077;-77
2024/03/23 02:56:56;;;;;;;10.80;6.25;;;;;;;5.21;50.00;94992.50;5086716;28;20047;-77
2024/03/23 02:59:21;;;;;;;10.43;6.50;;;;;;;5.20;49.87;95007.28;5086713;28;20083;-77
2024/03/23 03:01:47;;;;;;;10.00;7.00;;;;;;;5.09;50.20;95006.59;5085604;28;20188;-77
2024/03/23 03:04:12;;;;;;;11.98;6.80;;;;;;;5.11;50.03;94996.84;5086441;28;20107;-77
2024/03/23 03:06:38;;;;;;;9.45;6.18;;;;;;;5.15;50.04;95000.31;5086828;28;20032;-78
2024/03/23 03:09:03;;;;;;;11.88;6.53;;;;;;;5.06;50.20;94994.56;5086701;28;20028;-77
2024/03/23 03:11:28;;;;;;;11.50;6.70;;;;;;;5.10;50.08;94995.28;5086039;28;20431;-76
2024/03/23 03:13:54;;;;;;;10.35;6.93;;;;;;;5.09;49.95;94998.41;5086592;28;20036;-77
2024/03/23 03:16:19;;;;;;;9.48;5.95;;;;;;;5.07;49.95;95001.56;5084936;28;20589;-77
2024/03/23 03:18:46;;;;;;;9.73;6.00;;;;;;;5.05;49.86;94998.47;5086747;28;20032;-78
2024/03/23 03:21:12;;;;;;;9.32;6.70;;;;;;;5.00;49.73;95001.59;5084687;28;20028;-78
2024/03/23 03:23:38;;;;;;;9.95;6.85;;;;;;;4.98;49.81;94999.25;5085489;28;20028;-77
2024/03/23 03:26:03;;;;;;;12.13;6.47;;;;;;;4.95;49.73;95002.78;5084800;28;20410;-77
2024/03/23 03:28:30;;;;;;;10.00;6.55;;;;;;;4.94;49.99;95005.91;5068075;28;20027;-77
2024/03/23 03:30:57;;;;;;;10.15;5.93;;;;;;;4.94;49.55;95001.25;5086345;28;20077;-77
2024/03/23 03:33:22;;;;;;;12.57;6.60;;;;;;;4.92;49.83;95006.31;5085950;28;20486;-78
2024/03/23 03:35:47;;;;;;;13.00;6.63;;;;;;;4.91;49.78;95006.72;5084790;28;20031;-77
2024/03/23 03:38:13;;;;;;;14.18;6.63;;;;;;;4.88;49.73;95005.56;5084386;28;20494;-77
2024/03/23 03:40:38;;;;;;;12.32;6.70;;;;;;;4.84;49.92;95004.81;5086268;28;20103;-76
2024/03/23 03:43:03;;;;;;;9.63;6.85;;;;;;;4.75;50.00;94993.56;5085773;28;20108;-77
2024/03/23 03:45:29;;;;;;;10.23;6.35;;;;;;;4.76;49.91;95004.06;5086030;28;20050;-77
2024/03/23 03:47:54;;;;;;;11.70;6.47;;;;;;;4.75;50.15;95007.19;5086052;28;20032;-77
2024/03/23 03:50:21;;;;;;;12.50;6.53;;;;;;;4.68;50.05;94999.06;5085575;28;20059;-77
2024/03/23 03:52:47;;;;;;;12.32;6.07;;;;;;;4.68;50.33;95002.53;5085946;28;20111;-77
2024/03/23 03:55:14;;;;;;;8.32;5.97;;;;;;;4.69;50.27;95014.22;5085303;28;20103;-79
2024/03/23 03:57:39;;;;;;;11.23;6.30;;;;;;;4.69;50.17;95000.59;5085829;28;20467;-77
2024/03/23 04:00:05;;;;;;;9.55;6.82;;;;;;;4.60;50.67;95003.00;5083751;28;20490;-77
2024/03/23 04:02:31;;;;;;;10.80;7.32;;;;;;;4.65;50.50;94994.41;5084306;28;20054;-77
2024/03/23 04:04:57;;;;;;;10.98;6.53;;;;;;;4.58;50.75;95005.31;5085741;28;20036;-76
2024/03/23 04:07:22;;;;;;;10.60;6.18;;;;;;;4.52;50.98;94989.41;5083974;28;20375;-77
2024/03/23 04:09:49;;;;;;;11.23;6.85;;;;;;;4.56;50.83;95000.28;5085535;28;20463;-77
2024/03/23 04:12:15;;;;;;;14.43;6.75;;;;;;;4.52;51.05;95004.97;5083388;28;20066;-76
2024/03/23 04:14:40;;;;;;;12.00;6.78;;;;;;;4.55;50.79;95012.34;5085248;28;20051;-77
2024/03/23 04:17:06;;;;;;;11.20;6.80;;;;;;;4.55;50.74;95012.34;5083427;28;20080;-78
2024/03/23 04:19:32;;;;;;;11.07;6.90;;;;;;;4.46;51.12;95003.81;5088319;28;20028;-77
2024/03/23 04:21:57;;;;;;;10.77;6.60;;;;;;;4.45;51.04;95005.00;5085629;28;20486;-77
2024/03/23 04:24:22;;;;;;;11.93;7.25;;;;;;;4.44;51.10;95003.44;5085099;28;20035;-77
2024/03/23 04:26:48;;;;;;;10.45;6.80;;;;;;;4.47;51.09;95011.59;5083937;28;20473;-77
2024/03/23 04:29:13;;;;;;;11.88;6.82;;;;;;;4.42;51.41;95012.00;5084875;28;20028;-77
2024/03/23 04:31:39;;;;;;;12.30;6.70;;;;;;;4.42;51.36;95016.69;5083752;28;20088;-76
2024/03/23 04:34:04;;;;;;;13.10;6.90;;;;;;;4.42;51.27;95008.53;5083202;28;20429;-77
2024/03/23 04:36:30;;;;;;;10.13;6.47;;;;;;;4.44;51.34;95009.66;5083756;28;20084;-77
2024/03/23 04:38:56;;;;;;;10.90;6.72;;;;;;;4.46;51.48;95012.75;5083360;28;20459;-77
2024/03/23 04:41:22;;;;;;;11.95;7.30;;;;;;;4.43;51.43;95015.50;5083367;28;20038;-77
2024/03/23 04:43:47;;;;;;;10.43;7.10;;;;;;;4.43;51.54;95021.72;5082932;28;20036;-76
2024/03/23 04:46:12;;;;;;;13.75;6.70;;;;;;;4.44;51.59;95017.06;5083038;28;20035;-78
2024/03/23 04:48:38;;;;;;;13.13;7.28;;;;;;;4.43;51.68;95024.44;5084932;28;20024;-78
2024/03/23 04:51:04;;;;;;;14.60;7.25;;;;;;;4.40;51.66;95027.94;5083083;28;20047;-77
2024/03/23 04:53:29;;;;;;;11.95;7.45;;;;;;;4.39;51.75;95026.41;5084642;28;20136;-77
2024/03/23 04:55:59;;;;;;;11.25;7.32;;;;;;;4.39;51.77;95025.63;5083166;28;20547;-78
2024/03/23 04:58:24;;;;;;;15.60;7.70;;;;;;;4.43;51.61;95032.63;5083268;28;20020;-77
2024/03/23 05:00:57;;;;;;;11.52;8.00;;;;;;;4.38;51.69;95033.03;5083315;28;20020;-77
2024/03/23 05:03:23;;;;;;;15.93;7.83;;;;;;;4.37;52.08;95028.75;5082944;28;20032;-77
2024/03/23 05:05:49;;;;;;;16.58;8.85;;;;;;;4.35;52.13;95028.34;5083349;28;20153;-78
2024/03/23 05:08:18;;;;;;;13.52;8.23;;;;;;;4.33;52.10;95030.69;5083032;28;20028;-78
2024/03/23 05:10:43;;;;;;;17.77;7.45;;;;;;;4.36;52.07;95026.41;5082846;28;20020;-78
2024/03/23 05:13:09;;;;;;;12.65;7.75;;;;;;;4.37;52.01;95026.03;5082310;28;20460;-78
2024/03/23 05:15:34;;;;;;;16.42;7.22;;;;;;;4.30;52.03;95004.28;5084548;28;20030;-77
2024/03/23 05:18:00;;;;;;;12.55;7.03;;;;;;;4.39;52.15;95017.47;5084128;28;20120;-77
2024/03/23 05:20:25;;;;;;;17.30;8.38;;;;;;;4.39;52.30;95025.63;5083030;28;20035;-77
2024/03/23 05:22:51;;;;;;;10.48;7.35;;;;;;;4.36;52.36;95024.47;5089474;28;20410;-76
2024/03/23 05:25:16;;;;;;;14.20;7.90;;;;;;;4.33;52.66;95019.81;5083921;28;20028;-75
2024/03/23 05:27:41;;;;;;;15.55;8.02;;;;;;;4.35;52.90;95013.97;5084483;28;20501;-76
2024/03/23 05:30:08;;;;;;;13.70;8.88;;;;;;;4.41;52.74;95026.78;5084001;28;20434;-76
2024/03/23 05:32:34;;;;;;;19.42;10.55;;;;;;;4.42;52.80;95014.75;5084365;28;20437;-75
2024/03/23 05:34:59;;;;;;;20.98;10.77;;;;;;;4.51;52.45;95025.97;5084167;28;20126;-75
2024/03/23 05:37:25;;;;;;;21.98;11.27;;;;;;;4.51;52.43;95022.47;5082886;28;20032;-77
2024/03/23 05:39:51;;;;;;;20.80;11.00;;;;;;;4.56;52.56;95024.00;5082898;28;20032;-76
2024/03/23 05:42:17;;;;;;;26.38;11.95;;;;;;;4.63;52.54;95023.97;5065614;28;20028;-76
2024/03/23 05:44:46;;;;;;;24.80;11.85;;;;;;;4.64;52.33;95029.00;5084380;28;20043;-76
2024/03/23 05:47:16;;;;;;;26.98;13.77;;;;;;;4.65;52.39;95030.59;5083865;28;20159;-76
2024/03/23 05:49:46;;;;;;;22.10;11.85;;;;;;;4.62;52.29;95011.53;5066367;28;20463;-76
2024/03/23 05:52:11;;;;;;;24.65;13.25;;;;;;;4.73;52.29;95029.38;5083768;28;20024;-76
2024/03/23 05:54:36;;;;;;;27.15;13.82;;;;;;;4.83;52.17;95029.72;5084117;28;20024;-77
2024/03/23 05:57:03;;;;;;;21.27;12.23;;;;;;;4.88;51.95;95030.09;5085022;28;20036;-77
2024/03/23 05:59:28;;;;;;;24.05;12.85;;;;;;;4.94;51.95;95036.66;5088126;28;20036;-76
2024/03/23 06:01:54;;;;;;;17.88;11.48;;;;;;;4.99;51.98;95028.06;5069783;28;20055;-75
2024/03/23 06:04:19;;;;;;;25.63;11.63;;;;;;;5.02;51.67;95024.53;5086252;28;20028;-77
2024/03/23 06:06:45;;;;;;;18.58;11.38;;;;;;;5.04;51.62;95016.72;5086410;28;20020;-76
2024/03/23 06:09:11;;;;;;;24.20;13.60;;;;;;;5.13;51.07;95026.44;5087403;28;20024;-74
2024/03/23 06:11:36;;;;;;;25.15;14.13;;;;;;;5.21;50.82;95027.91;5086256;28;20111;-77
2024/03/23 06:14:02;;;;;;;23.38;14.60;;;;;;;5.22;50.95;95027.53;5086059;28;20112;-77
2024/03/23 06:16:27;;;;;;;28.42;16.27;;;;;;;5.25;50.69;95015.81;5087322;28;20141;-77
2024/03/23 06:18:54;;;;;;;24.27;13.48;;;;;;;5.33;50.72;95024.72;5086529;28;20126;-77
2024/03/23 06:21:20;;;;;;;23.98;14.32;;;;;;;5.36;50.67;95018.47;5069004;28;20028;-77
2024/03/23 06:23:51;;;;;;;21.83;11.57;;;;;;;5.43;50.51;95017.66;5087574;28;20077;-75
2024/03/23 06:26:20;;;;;;;18.35;10.75;;;;;;;5.43;50.28;95018.41;5085953;28;20047;-76
2024/03/23 06:28:49;;;;;;;20.02;11.48;;;;;;;5.46;50.24;95020.34;5087678;28;20486;-76
2024/03/23 06:31:15;;;;;;;21.38;11.95;;;;;;;5.48;50.04;95020.72;5085558;28;20050;-76
2024/03/23 06:33:41;;;;;;;20.38;10.60;;;;;;;5.50;50.03;95018.34;5086230;28;20441;-76
2024/03/23 06:36:09;;;;;;;19.33;11.40;;;;;;;5.56;49.93;95016.78;5087378;28;20539;-75
2024/03/23 06:38:35;;;;;;;21.75;11.40;;;;;;;5.69;49.99;95027.19;5085900;28;20514;-76
2024/03/23 06:41:04;;;;;;;18.75;11.20;;;;;;;5.73;49.93;95014.28;5087256;28;20020;-76
2024/03/23 06:43:29;;;;;;;18.13;11.05;;;;;;;5.82;49.79;95020.81;5085425;28;20402;-75
2024/03/23 06:45:55;;;;;;;24.58;12.73;;;;;;;5.92;49.69;95021.16;5087156;28;20031;-76
2024/03/23 06:48:20;;;;;;;21.10;12.45;;;;;;;5.97;49.67;95015.28;5085470;28;20410;-77
2024/03/23 06:50:46;;;;;;;18.58;11.95;;;;;;;6.07;49.74;95015.13;5085797;28;20346;-76
2024/03/23 06:53:15;;;;;;;17.85;11.90;;;;;;;6.11;49.47;95017.84;5085529;28;20036;-77
2024/03/23 06:55:41;;;;;;;24.83;14.23;;;;;;;6.22;49.42;95025.91;5086961;28;20020;-75
2024/03/23 06:58:08;;;;;;;23.15;13.07;;;;;;;6.27;49.16;95009.09;5086970;28;20417;-77
2024/03/23 07:00:33;;;;;;;20.02;12.18;;;;;;;6.39;48.95;95016.75;5085475;28;20028;-76
2024/03/23 07:02:59;;;;;;;19.48;12.57;;;;;;;6.44;48.91;95016.31;5086867;28;20062;-76
2024/03/23 07:05:25;;;;;;;22.23;11.90;;;;;;;6.54;48.80;95011.91;5085134;28;20135;-77
2024/03/23 07:07:50;;;;;;;18.88;12.32;;;;;;;6.65;48.46;95002.41;5086422;28;20492;-76
2024/03/23 07:10:16;;;;;;;19.27;11.80;;;;;;;6.74;48.56;95009.31;5086286;28;20089;-77
2024/03/23 07:12:41;;;;;;;18.35;11.38;;;;;;;6.80;48.22;95008.44;5068248;28;20750;-76
2024/03/23 07:15:08;;;;;;;19.45;11.10;;;;;;;6.95;47.67;95003.56;5086577;28;20523;-77
2024/03/23 07:17:34;;;;;;;19.50;10.88;;;;;;;7.03;47.18;95002.28;5068188;28;20040;-77
2024/03/23 07:20:03;;;;;;;17.90;9.77;;;;;;;7.21;46.51;94993.03;5085309;28;20028;-77
2024/03/23 07:22:29;;;;;;;15.80;9.57;;;;;;;7.21;46.61;94987.56;5084943;28;20092;-76
2024/03/23 07:24:55;;;;;;;16.08;9.30;;;;;;;7.28;46.49;94998.41;5086566;28;20073;-76
2024/03/23 07:27:20;;;;;;;15.70;9.70;;;;;;;7.37;46.70;94990.47;5086621;28;20028;-76
2024/03/23 07:29:45;;;;;;;18.23;10.27;;;;;;;7.51;46.48;95003.91;5085072;28;20051;-75
2024/03/23 07:32:11;;;;;;;19.30;9.27;;;;;;;7.57;46.55;94994.06;5088478;28;20074;-75
2024/03/23 07:34:37;;;;;;;18.92;10.10;;;;;;;7.71;46.26;94996.53;5095955;28;20619;-77
2024/03/23 07:37:02;;;;;;;21.38;12.25;;;;;;;7.78;46.07;94983.94;5086605;28;20024;-77
2024/03/23 07:39:28;;;;;;;19.08;13.02;;;;;;;7.82;46.23;94987.38;5085824;28;20053;-77
2024/03/23 07:41:53;;;;;;;20.10;13.73;;;;;;;7.79;46.33;94983.50;5086364;28;20035;-77
2024/03/23 07:44:18;;;;;;;19.67;12.38;;;;;;;7.84;46.37;94985.75;5085809;28;20127;-76
2024/03/23 07:46:44;;;;;;;18.92;10.50;;;;;;;7.99;46.29;94987.06;5086473;28;20042;-76
2024/03/23 07:49:09;;;;;;;15.13;8.95;;;;;;;8.16;45.96;94985.19;5084383;28;20081;-75
2024/03/23 07:51:34;;;;;;;17.00;9.88;;;;;;;8.19;46.03;94981.59;5085992;28;20031;-75
2024/03/23 07:54:00;;;;;;;16.67;9.23;;;;;;;8.35;45.74;94980.16;5086020;28;20108;-76
2024/03/23 07:56:25;;;;;;;14.27;8.70;;;;;;;8.47;45.51;94974.06;5085334;28;20074;-77
2024/03/23 07:58:50;;;;;;;14.85;8.05;;;;;;;8.65;44.66;94968.97;5086017;28;20028;-77
2024/03/23 08:01:17;;;;;;;15.57;8.32;;;;;;;8.75;44.50;94975.44;5084099;28;20117;-75
2024/03/23 08:03:44;;;;;;;15.88;8.18;;;;;;;8.87;44.57;94979.50;5084346;28;20024;-75
2024/03/23 08:06:20;;;;;;;15.85;7.97;;;;;;;9.02;44.53;94975.25;5085534;28;20458;-75
2024/03/23 08:08:46;;;;;;;14.40;7.97;;;;;;;9.18;44.15;94974.53;5085887;28;20021;-77
2024/03/23 08:11:12;;;;;;;17.20;9.68;;;;;;;9.36;43.45;94969.41;5085029;28;20227;-77
2024/03/23 08:13:41;;;;;;;17.92;9.27;;;;;;;9.60;43.19;94974.72;5083927;28;20527;-77
2024/03/23 08:16:08;;;;;;;24.02;9.27;;;;;;;9.69;42.95;94964.69;5083909;28;20028;-75
2024/03/23 08:18:34;;;;;;;19.70;10.13;;;;;;;9.88;42.89;94965.75;5083023;28;20509;-76
2024/03/23 08:21:01;;;;;;;13.48;9.40;;;;;;;9.99;42.74;94963.53;5085629;28;20067;-77
2024/03/23 08:23:27;;;;;;;16.35;8.57;;;;;;;10.22;42.39;94959.00;5066634;28;20024;-77
2024/03/23 08:26:01;;;;;;;14.82;9.45;;;;;;;10.45;41.90;94958.00;5084406;28;20040;-77
2024/03/23 08:28:27;;;;;;;18.40;9.85;;;;;;;10.74;41.46;94953.25;5085222;28;20077;-77
2024/03/23 08:30:53;;;;;;;15.68;10.00;;;;;;;10.99;40.89;94957.22;5083639;28;20028;-76
2024/03/23 08:33:18;;;;;;;19.30;9.95;;;;;;;11.20;40.81;94951.06;5083423;28;20034;-77
2024/03/23 08:35:54;;;;;;;13.85;9.23;;;;;;;11.44;40.48;94952.28;5083600;28;20028;-77
2024/03/23 08:38:19;;;;;;;15.52;8.70;;;;;;;11.69;40.16;94945.94;5083489;28;20036;-76
2024/03/23 08:40:45;;;;;;;14.10;9.05;;;;;;;11.95;39.65;94943.19;5083752;28;20023;-76
2024/03/23 08:43:10;;;;;;;15.35;8.73;;;;;;;12.25;39.17;94943.72;5090424;28;20060;-75
2024/03/23 08:45:35;;;;;;;14.40;8.73;;;;;;;12.58;38.44;94939.38;5085070;28;20027;-77
2024/03/23 08:48:01;;;;;;;17.52;9.35;;;;;;;12.95;37.13;94925.78;5083627;28;20024;-77
2024/03/23 08:50:26;;;;;;;14.82;10.18;;;;;;;13.28;36.35;94932.41;5066370;28;20032;-76
2024/03/23 08:52:52;;;;;;;15.20;10.43;;;;;;;13.54;35.78;94927.44;5083330;28;20024;-75
2024/03/23 08:55:17;;;;;;;18.55;9.60;;;;;;;13.80;35.61;94927.94;5084594;28;20081;-76
2024/03/23 08:57:42;;;;;;;12.65;9.05;;;;;;;14.01;35.64;94923.53;5084591;28;20626;-77
2024/03/23 09:00:08;;;;;;;16.50;8.60;;;;;;;14.37;35.40;94926.75;5084788;28;20089;-78
2024/03/23 09:02:34;;;;;;;16.75;9.43;;;;;;;14.71;34.15;94920.13;5083043;28;20035;-77
2024/03/23 09:05:04;;;;;;;14.07;9.77;;;;;;;15.06;32.96;94914.97;5083381;28;20028;-75
2024/03/23 09:07:32;;;;;;;16.38;9.45;;;;;;;15.35;32.73;94908.84;5084726;28;20084;-77
2024/03/23 09:09:58;;;;;;;13.73;8.82;;;;;;;15.55;32.32;94903.53;5083248;28;20047;-76
2024/03/23 09:12:23;;;;;;;20.10;10.25;;;;;;;15.74;31.96;94879.28;5082618;28;20499;-77
2024/03/23 09:14:50;;;;;;;16.05;10.25;;;;;;;16.20;31.35;94898.34;5083076;28;20036;-78
2024/03/23 09:17:15;;;;;;;13.45;7.85;;;;;;;16.40;31.21;94895.72;5084331;28;20040;-75
2024/03/23 09:19:41;;;;;;;14.20;8.88;;;;;;;16.70;30.54;94890.19;5082936;28;20035;-76
2024/03/23 09:22:06;;;;;;;18.02;10.35;;;;;;;17.07;30.48;94887.03;5084513;28;20558;-76
2024/03/23 09:24:32;;;;;;;12.90;9.88;;;;;;;17.40;29.79;94879.22;5082904;28;20016;-76
2024/03/23 09:26:57;;;;;;;18.23;8.85;;;;;;;17.69;29.12;94875.59;5083015;28;20568;-75
2024/03/23 09:29:23;;;;;;;14.15;8.68;;;;;;;18.08;28.54;94880.16;5084117;28;20026;-78
2024/03/23 09:31:48;;;;;;;13.55;8.63;;;;;;;18.44;27.76;94878.78;5087513;28;20434;-78
2024/03/23 09:34:14;;;;;;;12.27;8.60;;;;;;;18.69;27.74;94869.69;5068933;28;20032;-77
2024/03/23 09:36:39;;;;;;;14.63;8.80;;;;;;;19.16;27.17;94864.81;5085587;28;20031;-78
2024/03/23 09:39:05;;;;;;;10.85;8.38;;;;;;;19.47;27.05;94861.22;5070561;28;20070;-80
2024/03/23 09:41:31;;;;;;;18.77;9.93;;;;;;;19.96;26.20;94850.13;5086971;28;20101;-79
2024/03/23 09:43:56;;;;;;;13.73;8.90;;;;;;;20.34;25.22;94848.72;5087104;28;20028;-75
2024/03/23 09:46:21;;;;;;;15.65;9.98;;;;;;;;;;5087019;28;20024;-78
2024/03/23 09:48:47;;;;;;;12.48;8.35;;;;;;;20.78;24.55;94839.69;5088817;28;20036;-86
2024/03/23 09:51:12;;;;;;;14.82;7.90;;;;;;;21.11;24.31;94840.97;5088029;28;20025;-81
2024/03/23 09:53:38;;;;;;;12.88;8.05;;;;;;;21.21;23.80;94812.25;5095041;28;20081;-83
2024/03/23 09:56:04;;;;;;;13.93;7.85;;;;;;;21.64;23.06;94842.72;5098021;28;20038;-81
2024/03/23 09:58:30;;;;;;;12.70;8.43;;;;;;;22.03;22.79;94832.69;5087203;28;20111;-81
2024/03/23 10:00:57;;;;;;;10.35;8.55;;;;;;;22.58;22.13;94830.91;5070469;28;20020;-83
2024/03/23 10:03:22;;;;;;;11.15;7.85;;;;;;;23.11;21.80;94823.16;5088465;28;20523;-84
2024/03/23 10:06:00;;;;;;;16.92;10.20;;;;;;;23.72;20.39;94824.66;5087163;28;20113;-84
2024/03/23 10:08:25;;;;;;;10.40;8.00;;;;;;;24.48;19.81;94815.06;5086603;28;20031;-77
2024/03/23 10:10:51;;;;;;;12.02;9.30;;;;;;;25.19;19.32;94816.59;5086313;28;20088;-78
2024/03/23 10:13:27;;;;;;;13.27;8.18;;;;;;;25.78;18.51;94805.34;5087758;28;20035;-77
2024/03/23 10:15:57;;;;;;;13.90;9.07;;;;;;;26.59;18.20;94810.34;5086496;28;20466;-77
2024/03/23 10:18:24;;;;;;;13.13;7.97;;;;;;;27.54;17.57;94808.09;5086558;28;20035;-82
2024/03/23 10:21:13;;;;;;;11.90;7.25;;;;;;;28.36;15.83;94793.56;5088913;28;20093;-84
2024/03/23 10:23:39;;;;;;;9.82;7.45;;;;;;;29.22;15.80;94800.44;5070386;28;20123;-83
2024/03/23 10:26:18;;;;;;;9.18;7.05;;;;;;;30.01;14.70;94789.28;5088748;28;20051;-84
2024/03/23 10:29:07;;;;;;;9.85;7.15;;;;;;;30.79;13.96;94785.59;5089292;28;20020;-83
2024/03/23 10:31:36;;;;;;;12.05;6.93;;;;;;;31.53;13.79;94781.34;5090000;28;20063;-86
2024/03/23 10:34:03;;;;;;;12.20;7.38;;;;;;;32.34;13.08;94782.47;5087837;28;20036;-92
2024/03/23 10:36:30;;;;;;;10.70;7.47;;;;;;;33.05;12.59;94778.94;5088452;28;20078;-84
2024/03/23 10:38:58;;;;;;;9.90;6.47;;;;;;;33.27;11.88;94763.63;5087919;28;20047;-77
2024/03/23 10:41:26;;;;;;;9.07;5.72;;;;;;;33.82;11.71;94761.38;5088603;28;20031;-96
2024/03/23 10:43:51;;;;;;;9.93;6.10;;;;;;;34.42;11.39;94763.72;5088643;28;20500;-79
2024/03/23 10:46:17;;;;;;;8.82;5.50;;;;;;;34.94;10.94;94754.69;5085788;28;20039;-80
2024/03/23 10:48:43;;;;;;;9.50;5.68;;;;;;;35.51;10.54;94762.31;5069164;28;20482;-80
2024/03/23 10:51:10;;;;;;;10.88;5.85;;;;;;;35.86;10.18;94748.28;5068830;28;20028;-80
2024/03/23 10:53:37;;;;;;;12.95;8.65;;;;;;;36.13;9.68;94742.25;5068619;28;20059;-78
2024/03/23 10:56:03;;;;;;;11.38;6.20;;;;;;;36.32;9.75;94735.63;5085641;28;20080;-78
2024/03/23 10:58:31;;;;;;;10.38;5.20;;;;;;;36.38;9.74;94738.13;5086399;28;20571;-79
2024/03/23 11:00:58;;;;;;;10.15;5.88;;;;;;;36.51;9.23;94722.53;5068771;28;20016;-78
2024/03/23 11:03:36;;;;;;;9.32;5.20;;;;;;;36.76;9.12;94707.66;5085084;28;20119;-77
2024/03/23 11:06:04;;;;;;;7.90;4.80;;;;;;;37.41;9.03;94709.66;5068785;28;20039;-77
2024/03/23 11:08:33;;;;;;;7.90;4.68;;;;;;;37.69;8.74;94702.03;5087496;28;20028;-84
2024/03/23 11:11:12;;;;;;;6.97;5.18;;;;;;;37.74;8.59;94698.03;5099549;28;20077;-84
2024/03/23 11:13:38;;;;;;;9.98;4.88;;;;;;;37.87;8.29;94678.69;5089306;28;20419;-83
2024/03/23 11:16:14;;;;;;;9.13;4.63;;;;;;;37.91;8.92;94678.91;5087284;28;20023;-81
2024/03/23 11:18:39;;;;;;;6.35;4.45;;;;;;;38.33;8.61;94671.34;5085678;28;20510;-83
2024/03/23 11:21:06;;;;;;;7.40;4.20;;;;;;;38.54;8.06;94673.97;5068935;28;20103;-87
2024/03/23 11:23:32;;;;;;;7.15;4.68;;;;;;;38.57;8.09;94666.97;5086243;28;20077;-77
2024/03/23 11:25:57;;;;;;;10.15;4.85;;;;;;;38.61;8.15;94670.06;5084664;28;20024;-76
2024/03/23 11:28:23;;;;;;;10.63;5.00;;;;;;;39.03;7.89;94665.94;5067595;28;20494;-77